createdAt,value
2019-05-19T00:00:02.317Z,11.3
2019-05-19T00:00:42.302Z,11.3
2019-05-19T00:01:22.338Z,11.3
2019-05-19T00:02:02.332Z,11.3
2019-05-19T00:03:22.338Z,11.3
2019-05-19T00:04:02.358Z,11.3
2019-05-19T00:05:22.378Z,11.2
2019-05-19T00:06:02.379Z,11.2
2019-05-19T00:06:32.431Z,11.3
2019-05-19T00:07:02.467Z,11.3
2019-05-19T00:07:52.402Z,11.3
2019-05-19T00:08:32.411Z,11.4
2019-05-19T00:09:02.459Z,11.2
2019-05-19T00:09:32.447Z,11.2
2019-05-19T00:10:02.503Z,11.3
2019-05-19T00:11:22.478Z,11.2
2019-05-19T00:12:02.502Z,11.4
2019-05-19T00:12:42.654Z,11.3
2019-05-19T00:13:22.563Z,11.4
2019-05-19T00:14:02.613Z,11.3
2019-05-19T00:14:42.635Z,11.3
2019-05-19T00:15:12.746Z,11.4
2019-05-19T00:15:52.657Z,11.4
2019-05-19T00:16:32.743Z,11.5
2019-05-19T00:17:02.835Z,11.4
2019-05-19T00:18:22.727Z,11.4
2019-05-19T00:19:02.754Z,11.3
2019-05-19T00:20:52.859Z,11.4
2019-05-19T00:21:32.864Z,11.4
2019-05-19T00:22:22.862Z,11.5
2019-05-19T00:23:02.873Z,11.5
2019-05-19T00:23:32.880Z,11.5
2019-05-19T00:24:52.890Z,11.6
2019-05-19T00:25:32.908Z,11.6
2019-05-19T00:26:22.929Z,11.5
2019-05-19T00:27:02.954Z,11.6
2019-05-19T00:28:52.971Z,11.6
2019-05-19T00:29:33.031Z,11.6
2019-05-19T00:30:53.021Z,11.6
2019-05-19T00:31:33.031Z,11.5
2019-05-19T00:32:23.144Z,11.5
2019-05-19T00:33:03.173Z,11.5
2019-05-19T00:33:33.138Z,11.4
2019-05-19T00:34:23.169Z,11.5
2019-05-19T00:35:03.181Z,11.5
2019-05-19T00:35:33.199Z,11.4
2019-05-19T00:36:13.359Z,11.4
2019-05-19T00:36:53.261Z,11.4
2019-05-19T00:38:53.275Z,11.3
2019-05-19T00:39:33.310Z,11.4
2019-05-19T00:40:53.417Z,11.3
2019-05-19T00:41:33.401Z,11.3
2019-05-19T00:42:23.434Z,11.2
2019-05-19T00:43:03.416Z,11.4
2019-05-19T00:44:53.443Z,11.3
2019-05-19T00:45:33.453Z,11.2
2019-05-19T00:46:53.476Z,11.4
2019-05-19T00:48:53.526Z,11.3
2019-05-19T00:49:40.832Z,11.2
2019-05-19T00:50:53.557Z,11.2
2019-05-19T00:51:33.595Z,11.2
2019-05-19T00:52:23.692Z,11.2
2019-05-19T00:53:03.735Z,11.3
2019-05-19T00:53:43.739Z,11.2
2019-05-19T00:54:13.758Z,11.2
2019-05-19T00:54:53.766Z,11.2
2019-05-19T00:55:33.768Z,11.2
2019-05-19T00:56:53.792Z,11.2
2019-05-19T00:57:43.812Z,11.2
2019-05-19T00:58:53.826Z,11.2
2019-05-19T00:59:33.847Z,11.2
2019-05-19T01:00:53.920Z,11.2
2019-05-19T01:01:33.962Z,11.1
2019-05-19T01:02:24.003Z,11.2
2019-05-19T01:03:04.004Z,11.2
2019-05-19T01:04:54.011Z,11.3
2019-05-19T01:05:34.014Z,11.2
2019-05-19T01:06:54.055Z,11.1
2019-05-19T01:08:54.079Z,11.1
2019-05-19T01:09:34.087Z,11.1
2019-05-19T01:10:54.102Z,11.2
2019-05-19T01:11:35.068Z,11.2
2019-05-19T01:12:24.116Z,11.2
2019-05-19T01:13:04.160Z,11.2
2019-05-19T01:14:54.279Z,11.2
2019-05-19T01:15:34.290Z,11.2
2019-05-19T01:16:54.373Z,11.2
2019-05-19T01:18:54.456Z,11.1
2019-05-19T01:19:34.465Z,11.2
2019-05-19T01:20:04.478Z,11.2
2019-05-19T01:21:54.544Z,11.2
2019-05-19T01:23:24.551Z,11.2
2019-05-19T01:24:04.556Z,11.2
2019-05-19T01:24:34.621Z,11.3
2019-05-19T01:25:54.637Z,11.3
2019-05-19T01:26:34.638Z,11.2
2019-05-19T01:27:54.664Z,11.3
2019-05-19T01:28:34.671Z,11.3
2019-05-19T01:29:54.891Z,11.3
2019-05-19T01:30:34.810Z,11.2
2019-05-19T01:31:04.811Z,11.2
2019-05-19T01:32:34.875Z,11.3
2019-05-19T01:33:54.948Z,11.2
2019-05-19T01:34:24.921Z,11.2
2019-05-19T01:35:05.004Z,11.3
2019-05-19T01:35:35.014Z,11.2
2019-05-19T01:36:55.027Z,11.2
2019-05-19T01:38:25.093Z,11.2
2019-05-19T01:39:05.130Z,11.3
2019-05-19T01:39:35.124Z,11.3
2019-05-19T01:40:55.132Z,11.2
2019-05-19T01:41:35.135Z,11.3
2019-05-19T01:42:55.164Z,11.2
2019-05-19T01:43:25.167Z,11.2
2019-05-19T01:44:05.198Z,11.3
2019-05-19T01:44:35.181Z,11.2
2019-05-19T01:45:55.207Z,11.1
2019-05-19T01:46:35.209Z,11.2
2019-05-19T01:47:55.229Z,11.2
2019-05-19T01:48:27.869Z,11.2
2019-05-19T01:49:05.245Z,11.3
2019-05-19T01:49:35.258Z,11.2
2019-05-19T01:50:55.289Z,11.3
2019-05-19T01:51:25.289Z,11.3
2019-05-19T01:52:55.362Z,11.3
2019-05-19T01:53:35.352Z,11.3
2019-05-19T01:54:05.375Z,11.2
2019-05-19T01:55:25.415Z,11.3
2019-05-19T01:56:05.420Z,11.3
2019-05-19T01:57:35.479Z,11.3
2019-05-19T01:58:05.523Z,11.3
2019-05-19T01:59:25.612Z,11.3
2019-05-19T02:00:05.605Z,11.3
2019-05-19T02:01:25.650Z,11.3
2019-05-19T02:02:55.747Z,11.4
2019-05-19T02:03:35.721Z,11.2
2019-05-19T02:04:05.733Z,11.3
2019-05-19T02:05:25.781Z,11.2
2019-05-19T02:06:05.773Z,11.4
2019-05-19T02:07:35.993Z,11.3
2019-05-19T02:08:05.850Z,11.3
2019-05-19T02:09:25.881Z,11.4
2019-05-19T02:10:05.850Z,11.5
2019-05-19T02:11:25.878Z,11.3
2019-05-19T02:12:55.884Z,11.4
2019-05-19T02:13:35.979Z,11.4
2019-05-19T02:14:05.957Z,11.4
2019-05-19T02:15:26.067Z,11.4
2019-05-19T02:16:06.067Z,11.3
2019-05-19T02:17:36.128Z,11.3
2019-05-19T02:18:06.125Z,11.4
2019-05-19T02:19:26.128Z,11.4
2019-05-19T02:20:06.167Z,11.4
2019-05-19T02:21:26.172Z,11.4
2019-05-19T02:22:56.205Z,11.3
2019-05-19T02:23:36.207Z,11.4
2019-05-19T02:24:06.206Z,11.4
2019-05-19T02:25:26.231Z,11.4
2019-05-19T02:26:06.225Z,11.4
2019-05-19T02:27:37.217Z,11.4
2019-05-19T02:28:07.180Z,11.3
2019-05-19T02:28:37.209Z,11.4
2019-05-19T02:29:07.204Z,11.3
2019-05-19T02:29:37.211Z,11.3
2019-05-19T02:30:57.287Z,11.2
2019-05-19T02:31:37.241Z,11.2
2019-05-19T02:32:57.255Z,11.3
2019-05-19T02:33:37.259Z,11.2
2019-05-19T02:34:07.300Z,11.3
2019-05-19T02:34:37.277Z,11.3
2019-05-19T02:35:07.278Z,11.3
2019-05-19T02:35:37.296Z,11.2
2019-05-19T02:36:57.311Z,11.2
2019-05-19T02:38:27.339Z,11.2
2019-05-19T02:39:07.340Z,11.2
2019-05-19T02:39:37.417Z,11.2
2019-05-19T02:40:57.381Z,11.3
2019-05-19T02:41:37.394Z,11.1
2019-05-19T02:42:27.419Z,11.2
2019-05-19T02:43:07.426Z,11.2
2019-05-19T02:43:37.434Z,11.2
2019-05-19T02:44:07.456Z,11.2
2019-05-19T02:44:37.450Z,11.2
2019-05-19T02:45:57.472Z,11.2
2019-05-19T02:46:27.491Z,11.3
2019-05-19T02:47:57.502Z,11.2
2019-05-19T02:48:27.508Z,11.2
2019-05-19T02:49:07.596Z,11.2
2019-05-19T02:49:27.551Z,11.1
2019-05-19T02:50:07.569Z,11.2
2019-05-19T02:50:27.560Z,11.2
2019-05-19T02:51:07.592Z,11.2
2019-05-19T02:51:27.582Z,11.2
2019-05-19T02:52:57.615Z,11.2
2019-05-19T02:53:27.624Z,11.2
2019-05-19T02:54:07.658Z,11.2
2019-05-19T02:54:27.645Z,11.2
2019-05-19T02:55:07.659Z,11.2
2019-05-19T02:55:27.683Z,11.2
2019-05-19T02:56:07.656Z,11.1
2019-05-19T02:56:27.656Z,11.2
2019-05-19T02:58:27.705Z,11.2
2019-05-19T02:59:07.705Z,11.3
2019-05-19T02:59:37.707Z,11.2
2019-05-19T03:00:07.709Z,11.4
2019-05-19T03:00:37.795Z,11.3
2019-05-19T03:02:07.739Z,11.3
2019-05-19T03:02:37.742Z,11.2
2019-05-19T03:03:57.760Z,11.3
2019-05-19T03:04:37.772Z,11.3
2019-05-19T03:05:07.786Z,11.2
2019-05-19T03:05:37.789Z,11.3
2019-05-19T03:06:07.836Z,11.4
2019-05-19T03:06:37.810Z,11.2
2019-05-19T03:07:27.814Z,11.3
2019-05-19T03:08:07.822Z,11.3
2019-05-19T03:08:37.822Z,11.3
2019-05-19T03:09:07.851Z,11.3
2019-05-19T03:09:37.856Z,11.4
2019-05-19T03:10:57.875Z,11.4
2019-05-19T03:11:37.871Z,11.4
2019-05-19T03:12:57.886Z,11.3
2019-05-19T03:13:37.888Z,11.4
2019-05-19T03:14:07.893Z,11.3
2019-05-19T03:14:37.926Z,11.4
2019-05-19T03:15:07.961Z,11.3
2019-05-19T03:15:38.004Z,11.4
2019-05-19T03:17:08.076Z,11.3
2019-05-19T03:17:38.156Z,11.4
2019-05-19T03:18:58.153Z,11.4
2019-05-19T03:19:28.163Z,11.3
2019-05-19T03:20:08.211Z,11.2
2019-05-19T03:20:28.175Z,11.3
2019-05-19T03:21:10.703Z,11.4
2019-05-19T03:21:28.253Z,11.4
2019-05-19T03:22:58.238Z,11.2
2019-05-19T03:23:28.296Z,11.2
2019-05-19T03:24:08.290Z,11.1
2019-05-19T03:24:28.315Z,11.2
2019-05-19T03:25:08.312Z,11.3
2019-05-19T03:25:28.313Z,11.3
2019-05-19T03:26:08.325Z,11.3
2019-05-19T03:26:28.345Z,11.3
2019-05-19T03:27:58.338Z,11.2
2019-05-19T03:28:28.347Z,11.3
2019-05-19T03:29:08.356Z,11.2
2019-05-19T03:29:28.359Z,11.2
2019-05-19T03:30:08.392Z,11.2
2019-05-19T03:30:28.473Z,11.2
2019-05-19T03:31:08.406Z,11.2
2019-05-19T03:31:28.385Z,11.2
2019-05-19T03:32:28.446Z,11.2
2019-05-19T03:33:08.468Z,11.2
2019-05-19T03:33:28.477Z,11.2
2019-05-19T03:34:08.525Z,11.2
2019-05-19T03:34:28.495Z,11.2
2019-05-19T03:35:08.548Z,11.1
2019-05-19T03:35:28.529Z,11.2
2019-05-19T03:36:08.511Z,11.2
2019-05-19T03:36:58.573Z,11.3
2019-05-19T03:37:28.580Z,11.3
2019-05-19T03:38:08.619Z,11.3
2019-05-19T03:38:38.597Z,11.2
2019-05-19T03:39:08.637Z,11.2
2019-05-19T03:39:38.664Z,11.2
2019-05-19T03:40:08.698Z,11.2
2019-05-19T03:40:38.677Z,11.2
2019-05-19T03:41:08.688Z,11.1
2019-05-19T03:41:58.730Z,11.2
2019-05-19T03:42:38.730Z,11.1
2019-05-19T03:43:08.802Z,11.1
2019-05-19T03:43:38.777Z,11.2
2019-05-19T03:44:08.791Z,11.2
2019-05-19T03:45:28.805Z,11.2
2019-05-19T03:45:58.813Z,11.2
2019-05-19T03:46:58.849Z,11.3
2019-05-19T03:47:38.860Z,11.1
2019-05-19T03:48:08.862Z,11.1
2019-05-19T03:49:28.887Z,11.2
2019-05-19T03:49:58.886Z,11.1
2019-05-19T03:50:38.921Z,11.1
2019-05-19T03:51:31.241Z,11.1
2019-05-19T03:52:08.929Z,11.2
2019-05-19T03:53:28.937Z,11.1
2019-05-19T03:53:58.974Z,11.1
2019-05-19T03:54:38.977Z,11.2
2019-05-19T03:55:08.986Z,11.2
2019-05-19T03:57:29.077Z,11.2
2019-05-19T03:57:59.090Z,11.1
2019-05-19T03:58:39.126Z,11.1
2019-05-19T03:59:09.138Z,11.1
2019-05-19T04:00:29.329Z,11.2
2019-05-19T04:00:59.335Z,11.0
2019-05-19T04:01:59.347Z,11.1
2019-05-19T04:02:39.355Z,11.1
2019-05-19T04:03:09.361Z,11.1
2019-05-19T04:04:29.413Z,11.1
2019-05-19T04:04:59.419Z,11.2
2019-05-19T04:05:39.426Z,11.1
2019-05-19T04:06:29.457Z,11.1
2019-05-19T04:07:09.456Z,11.2
2019-05-19T04:08:29.477Z,11.0
2019-05-19T04:08:59.484Z,11.1
2019-05-19T04:09:39.511Z,11.2
2019-05-19T04:10:09.514Z,11.1
2019-05-19T04:12:29.565Z,11.1
2019-05-19T04:12:59.566Z,11.2
2019-05-19T04:13:39.610Z,11.1
2019-05-19T04:14:09.587Z,11.2
2019-05-19T04:15:29.643Z,11.2
2019-05-19T04:15:59.668Z,11.2
2019-05-19T04:16:59.674Z,11.2
2019-05-19T04:17:39.683Z,11.1
2019-05-19T04:18:09.722Z,11.2
2019-05-19T04:19:29.727Z,11.2
2019-05-19T04:20:09.854Z,11.2
2019-05-19T04:22:29.860Z,11.2
2019-05-19T04:23:09.870Z,11.2
2019-05-19T04:24:29.904Z,11.2
2019-05-19T04:24:59.926Z,11.2
2019-05-19T04:25:39.933Z,11.2
2019-05-19T04:26:39.955Z,11.3
2019-05-19T04:28:29.973Z,11.2
2019-05-19T04:29:10.011Z,11.2
2019-05-19T04:30:30.000Z,11.2
2019-05-19T04:31:00.018Z,11.2
2019-05-19T04:32:00.028Z,11.2
2019-05-19T04:32:40.033Z,11.2
2019-05-19T04:33:10.051Z,11.2
2019-05-19T04:34:30.057Z,11.2
2019-05-19T04:35:10.065Z,11.2
2019-05-19T04:37:30.099Z,11.3
2019-05-19T04:38:10.117Z,11.1
2019-05-19T04:39:30.145Z,11.2
2019-05-19T04:40:00.152Z,11.1
2019-05-19T04:40:40.157Z,11.2
2019-05-19T04:41:40.449Z,11.2
2019-05-19T04:43:30.275Z,11.1
2019-05-19T04:44:10.261Z,11.1
2019-05-19T04:45:30.278Z,11.1
2019-05-19T04:46:00.292Z,11.1
2019-05-19T04:47:00.320Z,11.2
2019-05-19T04:47:40.329Z,11.1
2019-05-19T04:48:10.337Z,11.1
2019-05-19T04:49:30.348Z,11.1
2019-05-19T04:50:10.359Z,11.2
2019-05-19T04:52:30.406Z,11.1
2019-05-19T04:53:00.414Z,11.1
2019-05-19T04:53:40.433Z,11.2
2019-05-19T04:54:10.424Z,11.1
2019-05-19T04:55:00.550Z,11.1
2019-05-19T04:55:30.598Z,11.2
2019-05-19T04:56:10.565Z,11.2
2019-05-19T04:57:10.574Z,11.2
2019-05-19T04:58:30.608Z,11.3
2019-05-19T04:59:00.625Z,11.1
2019-05-19T04:59:40.638Z,11.2
2019-05-19T05:00:10.636Z,11.2
2019-05-19T05:02:30.670Z,11.2
2019-05-19T05:03:00.748Z,11.3
2019-05-19T05:03:40.690Z,11.1
2019-05-19T05:04:10.725Z,11.2
2019-05-19T05:05:30.753Z,11.2
2019-05-19T05:06:00.764Z,11.2
2019-05-19T05:07:00.791Z,11.2
2019-05-19T05:07:40.803Z,11.0
2019-05-19T05:08:27.722Z,11.2
2019-05-19T05:09:30.835Z,11.2
2019-05-19T05:10:00.837Z,11.2
2019-05-19T05:10:40.849Z,11.2
2019-05-19T05:12:00.900Z,11.2
2019-05-19T05:12:40.894Z,11.3
2019-05-19T05:13:10.896Z,11.3
2019-05-19T05:14:30.924Z,11.2
2019-05-19T05:15:10.945Z,11.2
2019-05-19T05:15:40.987Z,11.2
2019-05-19T05:16:31.010Z,11.1
2019-05-19T05:17:10.983Z,11.2
2019-05-19T05:18:31.012Z,11.2
2019-05-19T05:19:01.018Z,11.3
2019-05-19T05:19:41.073Z,11.3
2019-05-19T05:20:11.074Z,11.3
2019-05-19T05:22:31.134Z,11.3
2019-05-19T05:23:01.195Z,11.3
2019-05-19T05:23:31.286Z,11.4
2019-05-19T05:24:01.200Z,11.4
2019-05-19T05:24:31.241Z,11.3
2019-05-19T05:25:01.221Z,11.3
2019-05-19T05:25:41.228Z,11.3
2019-05-19T05:26:31.232Z,11.4
2019-05-19T05:27:11.342Z,11.3
2019-05-19T05:28:31.252Z,11.3
2019-05-19T05:29:01.254Z,11.2
2019-05-19T05:29:41.309Z,11.3
2019-05-19T05:31:01.289Z,11.3
2019-05-19T05:32:01.309Z,11.2
2019-05-19T05:32:31.319Z,11.2
2019-05-19T05:33:01.337Z,11.2
2019-05-19T05:33:31.347Z,11.1
2019-05-19T05:34:01.354Z,11.1
2019-05-19T05:34:41.381Z,11.1
2019-05-19T05:35:11.379Z,11.2
2019-05-19T05:36:41.446Z,11.1
2019-05-19T05:38:01.470Z,11.1
2019-05-19T05:38:31.466Z,11.2
2019-05-19T05:39:01.525Z,11.1
2019-05-19T05:39:41.578Z,11.0
2019-05-19T05:40:11.604Z,11.1
2019-05-19T05:41:41.596Z,11.1
2019-05-19T05:43:01.615Z,11.1
2019-05-19T05:43:41.628Z,11.1
2019-05-19T05:44:11.624Z,11.1
2019-05-19T05:45:31.694Z,11.0
2019-05-19T05:46:01.667Z,11.1
2019-05-19T05:47:31.690Z,11.0
2019-05-19T05:48:11.697Z,11.1
2019-05-19T05:48:41.696Z,11.0
2019-05-19T05:50:01.771Z,11.1
2019-05-19T05:50:41.730Z,11.0
2019-05-19T05:51:31.753Z,11.1
2019-05-19T05:52:01.768Z,11.1
2019-05-19T05:52:41.761Z,11.0
2019-05-19T05:53:11.770Z,11.1
2019-05-19T05:54:31.824Z,11.1
2019-05-19T05:55:11.862Z,11.2
2019-05-19T05:55:41.860Z,11.2
2019-05-19T05:56:31.931Z,11.1
2019-05-19T05:57:01.928Z,11.1
2019-05-19T05:57:31.995Z,11.1
2019-05-19T05:58:02.021Z,11.1
2019-05-19T05:58:32.024Z,11.2
2019-05-19T05:59:02.042Z,11.1
2019-05-19T05:59:32.041Z,11.2
2019-05-19T06:00:02.044Z,11.2
2019-05-19T06:00:32.079Z,11.2
2019-05-19T06:01:12.103Z,11.2
2019-05-19T06:01:42.098Z,11.2
2019-05-19T06:03:02.160Z,11.2
2019-05-19T06:03:42.209Z,11.2
2019-05-19T06:04:12.183Z,11.2
2019-05-19T06:05:32.226Z,11.1
2019-05-19T06:07:02.225Z,11.2
2019-05-19T06:07:32.251Z,11.1
2019-05-19T06:08:02.273Z,11.1
2019-05-19T06:08:32.297Z,11.2
2019-05-19T06:09:02.306Z,11.3
2019-05-19T06:09:32.311Z,11.2
2019-05-19T06:10:02.324Z,11.1
2019-05-19T06:10:32.351Z,11.2
2019-05-19T06:11:12.328Z,11.2
2019-05-19T06:12:32.345Z,11.1
2019-05-19T06:13:12.376Z,11.1
2019-05-19T06:13:42.377Z,11.2
2019-05-19T06:15:02.403Z,11.1
2019-05-19T06:15:42.451Z,11.2
2019-05-19T06:16:32.421Z,11.1
2019-05-19T06:17:02.427Z,11.1
2019-05-19T06:17:42.563Z,11.2
2019-05-19T06:18:12.459Z,11.2
2019-05-19T06:19:32.496Z,11.1
2019-05-19T06:20:03.034Z,11.2
2019-05-19T06:20:42.488Z,11.2
2019-05-19T06:22:02.522Z,11.1
2019-05-19T06:22:55.556Z,11.1
2019-05-19T06:24:02.589Z,11.2
2019-05-19T06:24:42.595Z,11.1
2019-05-19T06:25:12.697Z,11.2
2019-05-19T06:26:42.632Z,11.2
2019-05-19T06:27:12.644Z,11.1
2019-05-19T06:28:32.688Z,11.2
2019-05-19T06:29:12.676Z,11.2
2019-05-19T06:29:42.710Z,11.2
2019-05-19T06:30:12.720Z,11.2
2019-05-19T06:31:42.739Z,11.3
2019-05-19T06:32:12.771Z,11.2
2019-05-19T06:33:32.822Z,11.2
2019-05-19T06:34:12.806Z,11.2
2019-05-19T06:35:32.821Z,11.2
2019-05-19T06:37:02.846Z,11.2
2019-05-19T06:37:32.839Z,11.2
2019-05-19T06:38:12.858Z,11.2
2019-05-19T06:39:32.898Z,11.3
2019-05-19T06:40:12.904Z,11.2
2019-05-19T06:40:42.915Z,11.2
2019-05-19T06:42:02.926Z,11.2
2019-05-19T06:42:42.964Z,11.3
2019-05-19T06:43:12.945Z,11.3
2019-05-19T06:44:32.947Z,11.4
2019-05-19T06:45:12.960Z,11.3
2019-05-19T06:46:43.011Z,11.4
2019-05-19T06:47:12.988Z,11.3
2019-05-19T06:48:33.029Z,11.5
2019-05-19T06:49:13.038Z,11.5
2019-05-19T06:49:53.052Z,11.5
2019-05-19T06:50:33.067Z,11.6
2019-05-19T06:51:33.077Z,11.6
2019-05-19T06:52:13.069Z,11.7
2019-05-19T06:52:43.095Z,11.6
2019-05-19T06:53:14.289Z,11.7
2019-05-19T06:54:33.272Z,11.7
2019-05-19T06:55:13.201Z,11.9
2019-05-19T06:55:43.199Z,11.8
2019-05-19T06:56:33.202Z,11.9
2019-05-19T06:57:13.223Z,11.9
2019-05-19T06:58:33.255Z,12.0
2019-05-19T06:59:13.263Z,12.0
2019-05-19T06:59:43.253Z,11.9
2019-05-19T07:00:13.248Z,12.0
2019-05-19T07:02:33.280Z,12.0
2019-05-19T07:03:13.308Z,12.0
2019-05-19T07:03:43.317Z,12.0
2019-05-19T07:04:13.335Z,12.0
2019-05-19T07:07:03.417Z,11.9
2019-05-19T07:07:43.377Z,11.9
2019-05-19T07:08:13.380Z,11.9
2019-05-19T07:08:43.395Z,11.9
2019-05-19T07:09:13.396Z,11.9
2019-05-19T07:10:33.523Z,12.0
2019-05-19T07:11:33.428Z,11.9
2019-05-19T07:12:13.463Z,11.9
2019-05-19T07:12:43.452Z,12.0
2019-05-19T07:13:13.486Z,11.9
2019-05-19T07:14:33.619Z,11.9
2019-05-19T07:15:13.622Z,12.0
2019-05-19T07:15:43.615Z,12.0
2019-05-19T07:16:33.629Z,12.0
2019-05-19T07:17:13.640Z,11.9
2019-05-19T07:18:33.709Z,11.9
2019-05-19T07:19:13.742Z,11.9
2019-05-19T07:19:43.737Z,12.0
2019-05-19T07:20:13.734Z,11.9
2019-05-19T07:20:53.763Z,12.0
2019-05-19T07:22:37.407Z,12.0
2019-05-19T07:23:27.166Z,12.0
2019-05-19T07:23:43.840Z,12.0
2019-05-19T07:24:13.844Z,12.0
2019-05-19T07:24:53.860Z,12.1
2019-05-19T07:25:33.853Z,12.0
2019-05-19T07:26:33.871Z,12.1
2019-05-19T07:27:13.882Z,12.1
2019-05-19T07:27:43.914Z,12.1
2019-05-19T07:28:14.045Z,12.1
2019-05-19T07:28:53.919Z,12.1
2019-05-19T07:29:33.920Z,12.2
2019-05-19T07:30:13.962Z,12.2
2019-05-19T07:30:43.954Z,12.2
2019-05-19T07:31:34.089Z,12.3
2019-05-19T07:32:14.121Z,12.2
2019-05-19T07:33:34.115Z,12.3
2019-05-19T07:34:14.186Z,12.4
2019-05-19T07:34:44.163Z,12.3
2019-05-19T07:35:14.145Z,12.3
2019-05-19T07:36:14.155Z,12.2
2019-05-19T07:37:34.173Z,12.2
2019-05-19T07:38:14.194Z,12.3
2019-05-19T07:38:44.262Z,12.3
2019-05-19T07:39:14.309Z,12.2
2019-05-19T07:40:34.297Z,12.2
2019-05-19T07:42:04.397Z,12.2
2019-05-19T07:42:34.424Z,12.2
2019-05-19T07:43:14.558Z,12.3
2019-05-19T07:44:34.459Z,12.2
2019-05-19T07:45:14.469Z,12.2
2019-05-19T07:45:44.486Z,12.2
2019-05-19T07:47:04.505Z,12.2
2019-05-19T07:47:44.527Z,12.3
2019-05-19T07:48:14.552Z,12.3
2019-05-19T07:48:44.539Z,12.3
2019-05-19T07:49:14.625Z,12.2
2019-05-19T07:50:37.872Z,12.3
2019-05-19T07:51:34.701Z,12.3
2019-05-19T07:52:04.706Z,12.5
2019-05-19T07:52:44.714Z,12.4
2019-05-19T07:54:04.741Z,12.4
2019-05-19T07:54:44.828Z,12.4
2019-05-19T07:56:14.858Z,12.5
2019-05-19T07:56:44.865Z,12.4
2019-05-19T07:58:04.872Z,12.4
2019-05-19T07:58:44.955Z,12.4
2019-05-19T08:00:05.054Z,12.5
2019-05-19T08:00:34.986Z,12.5
2019-05-19T08:01:35.023Z,12.4
2019-05-19T08:02:14.992Z,12.5
2019-05-19T08:02:44.991Z,12.4
2019-05-19T08:03:34.999Z,12.4
2019-05-19T08:04:05.011Z,12.4
2019-05-19T08:04:45.035Z,12.4
2019-05-19T08:06:15.078Z,12.5
2019-05-19T08:08:05.061Z,12.5
2019-05-19T08:08:45.105Z,12.5
2019-05-19T08:10:05.157Z,12.6
2019-05-19T08:10:35.155Z,12.5
2019-05-19T08:11:15.158Z,12.6
2019-05-19T08:13:05.718Z,12.5
2019-05-19T08:13:35.734Z,12.5
2019-05-19T08:14:15.723Z,12.4
2019-05-19T08:14:45.978Z,12.4
2019-05-19T08:17:05.758Z,12.4
2019-05-19T08:17:35.763Z,12.5
2019-05-19T08:18:15.777Z,12.4
2019-05-19T08:18:45.786Z,12.5
2019-05-19T08:20:05.825Z,12.4
2019-05-19T08:20:35.830Z,12.4
2019-05-19T08:21:35.838Z,12.4
2019-05-19T08:22:15.878Z,12.5
2019-05-19T08:22:45.861Z,12.5
2019-05-19T08:24:05.875Z,12.5
2019-05-19T08:24:35.993Z,12.4
2019-05-19T08:25:15.964Z,12.4
2019-05-19T08:25:45.998Z,12.4
2019-05-19T08:26:46.034Z,12.4
2019-05-19T08:27:26.065Z,12.4
2019-05-19T08:28:08.711Z,12.5
2019-05-19T08:28:45.951Z,12.5
2019-05-19T08:30:05.971Z,12.5
2019-05-19T08:30:45.979Z,12.5
2019-05-19T08:32:06.024Z,12.5
2019-05-19T08:32:35.998Z,12.4
2019-05-19T08:33:16.075Z,12.5
2019-05-19T08:35:06.054Z,12.5
2019-05-19T08:35:36.066Z,12.5
2019-05-19T08:37:06.085Z,12.5
2019-05-19T08:37:36.194Z,12.5
2019-05-19T08:38:16.156Z,12.5
2019-05-19T08:38:46.166Z,12.5
2019-05-19T08:40:06.205Z,12.5
2019-05-19T08:40:36.245Z,12.4
2019-05-19T08:41:16.239Z,12.5
2019-05-19T08:41:46.240Z,12.5
2019-05-19T08:43:06.251Z,12.5
2019-05-19T08:43:46.264Z,12.6
2019-05-19T08:45:06.280Z,12.5
2019-05-19T08:45:36.291Z,12.7
2019-05-19T08:46:16.317Z,12.6
2019-05-19T08:48:06.375Z,12.6
2019-05-19T08:48:36.338Z,12.6
2019-05-19T08:49:16.411Z,12.5
2019-05-19T08:51:06.384Z,12.6
2019-05-19T08:51:36.410Z,12.7
2019-05-19T08:52:16.394Z,12.7
2019-05-19T08:54:14.113Z,12.7
2019-05-19T08:54:36.430Z,12.6
2019-05-19T08:55:16.444Z,12.7
2019-05-19T08:57:06.518Z,12.7
2019-05-19T08:57:36.593Z,12.8
2019-05-19T08:58:16.623Z,12.7
2019-05-19T08:59:36.654Z,12.7
2019-05-19T09:00:16.715Z,12.7
2019-05-19T09:00:46.726Z,12.6
2019-05-19T09:02:06.756Z,12.7
2019-05-19T09:02:36.780Z,12.7
2019-05-19T09:03:16.756Z,12.7
2019-05-19T09:03:46.779Z,12.6
2019-05-19T09:05:06.834Z,12.7
2019-05-19T09:05:36.814Z,12.7
2019-05-19T09:07:06.842Z,12.5
2019-05-19T09:07:36.844Z,12.6
2019-05-19T09:08:16.852Z,12.6
2019-05-19T09:08:46.859Z,12.5
2019-05-19T09:10:06.899Z,12.6
2019-05-19T09:10:36.879Z,12.6
2019-05-19T09:11:16.935Z,12.6
2019-05-19T09:12:36.933Z,12.5
2019-05-19T09:13:16.957Z,12.5
2019-05-19T09:13:46.973Z,12.5
2019-05-19T09:15:06.987Z,12.6
2019-05-19T09:15:37.016Z,12.5
2019-05-19T09:16:16.997Z,12.5
2019-05-19T09:16:47.046Z,12.5
2019-05-19T09:18:07.081Z,12.5
2019-05-19T09:18:37.149Z,12.5
2019-05-19T09:19:17.097Z,12.5
2019-05-19T09:19:47.116Z,12.5
2019-05-19T09:21:17.198Z,12.5
2019-05-19T09:22:37.225Z,12.5
2019-05-19T09:23:07.237Z,12.4
2019-05-19T09:23:37.234Z,12.5
2019-05-19T09:24:07.244Z,12.4
2019-05-19T09:24:37.473Z,12.5
2019-05-19T09:25:17.258Z,12.5
2019-05-19T09:25:47.292Z,12.5
2019-05-19T09:27:07.285Z,12.5
2019-05-19T09:27:37.301Z,12.6
2019-05-19T09:28:17.346Z,12.5
2019-05-19T09:28:47.355Z,12.5
2019-05-19T09:30:07.387Z,12.6
2019-05-19T09:30:37.382Z,12.6
2019-05-19T09:31:17.388Z,12.6
2019-05-19T09:31:47.387Z,12.6
2019-05-19T09:33:07.420Z,12.8
2019-05-19T09:33:37.412Z,12.8
2019-05-19T09:34:17.440Z,12.8
2019-05-19T09:34:47.447Z,12.8
2019-05-19T09:36:07.535Z,12.9
2019-05-19T09:36:47.453Z,12.9
2019-05-19T09:37:17.570Z,12.9
2019-05-19T09:38:37.474Z,13.0
2019-05-19T09:39:17.525Z,12.9
2019-05-19T09:40:37.573Z,13.0
2019-05-19T09:41:17.565Z,13.0
2019-05-19T09:41:47.578Z,13.1
2019-05-19T09:43:07.599Z,13.1
2019-05-19T09:43:37.603Z,13.2
2019-05-19T09:44:17.611Z,13.1
2019-05-19T09:44:47.764Z,13.1
2019-05-19T09:45:27.786Z,13.2
2019-05-19T09:47:07.648Z,13.2
2019-05-19T09:47:37.886Z,13.2
2019-05-19T09:48:07.677Z,13.2
2019-05-19T09:48:37.672Z,13.1
2019-05-19T09:49:07.715Z,13.2
2019-05-19T09:49:37.685Z,13.2
2019-05-19T09:50:17.706Z,13.2
2019-05-19T09:50:47.715Z,13.2
2019-05-19T09:52:07.786Z,13.3
2019-05-19T09:52:37.788Z,13.3
2019-05-19T09:53:17.807Z,13.4
2019-05-19T09:53:47.803Z,13.4
2019-05-19T09:55:07.862Z,13.4
2019-05-19T09:55:37.939Z,13.4
2019-05-19T09:56:37.971Z,13.5
2019-05-19T09:57:17.940Z,13.5
2019-05-19T09:57:47.947Z,13.5
2019-05-19T09:59:07.961Z,13.4
2019-05-19T09:59:37.981Z,13.5
2019-05-19T10:00:18.004Z,13.5
2019-05-19T10:00:47.990Z,13.5
2019-05-19T10:02:08.018Z,13.5
2019-05-19T10:02:38.017Z,13.6
2019-05-19T10:03:19.708Z,13.5
2019-05-19T10:03:48.045Z,13.5
2019-05-19T10:05:08.100Z,13.5
2019-05-19T10:05:38.111Z,13.5
2019-05-19T10:07:08.503Z,13.5
2019-05-19T10:07:48.152Z,13.3
2019-05-19T10:08:18.144Z,13.5
2019-05-19T10:09:38.165Z,13.5
2019-05-19T10:10:18.257Z,13.5
2019-05-19T10:11:18.210Z,13.5
2019-05-19T10:12:38.203Z,13.4
2019-05-19T10:13:08.196Z,13.5
2019-05-19T10:13:38.209Z,13.4
2019-05-19T10:14:08.293Z,13.5
2019-05-19T10:14:38.243Z,13.4
2019-05-19T10:15:18.277Z,13.5
2019-05-19T10:16:08.283Z,13.5
2019-05-19T10:16:38.297Z,13.5
2019-05-19T10:17:18.289Z,13.5
2019-05-19T10:18:38.332Z,13.5
2019-05-19T10:19:08.336Z,13.6
2019-05-19T10:19:38.374Z,13.6
2019-05-19T10:20:18.383Z,13.6
2019-05-19T10:21:08.382Z,13.5
2019-05-19T10:21:38.388Z,13.6
2019-05-19T10:22:18.429Z,13.7
2019-05-19T10:22:48.445Z,13.7
2019-05-19T10:24:08.471Z,13.8
2019-05-19T10:24:38.468Z,13.7
2019-05-19T10:25:20.797Z,13.7
2019-05-19T10:25:38.500Z,13.7
2019-05-19T10:26:08.496Z,13.8
2019-05-19T10:26:38.527Z,13.9
2019-05-19T10:27:20.873Z,13.8
2019-05-19T10:27:48.540Z,13.8
2019-05-19T10:29:08.561Z,13.9
2019-05-19T10:29:48.584Z,14.0
2019-05-19T10:30:18.606Z,13.9
2019-05-19T10:31:38.685Z,14.0
2019-05-19T10:32:18.659Z,14.0
2019-05-19T10:33:38.659Z,14.0
2019-05-19T10:34:18.666Z,14.1
2019-05-19T10:34:48.681Z,14.1
2019-05-19T10:36:08.724Z,14.2
2019-05-19T10:36:48.741Z,14.1
2019-05-19T10:38:08.769Z,14.3
2019-05-19T10:38:48.823Z,14.3
2019-05-19T10:39:18.808Z,14.3
2019-05-19T10:39:48.811Z,14.4
2019-05-19T10:41:08.825Z,14.4
2019-05-19T10:41:48.842Z,14.3
2019-05-19T10:42:18.846Z,14.4
2019-05-19T10:42:48.855Z,14.4
2019-05-19T10:43:18.856Z,14.5
2019-05-19T10:43:48.862Z,14.4
2019-05-19T10:44:18.868Z,14.5
2019-05-19T10:44:48.872Z,14.4
2019-05-19T10:47:08.925Z,14.5
2019-05-19T10:47:38.968Z,14.4
2019-05-19T10:48:18.962Z,14.4
2019-05-19T10:48:38.964Z,14.5
2019-05-19T10:49:19.028Z,14.4
2019-05-19T10:49:39.054Z,14.6
2019-05-19T10:50:19.055Z,14.6
2019-05-19T10:50:49.060Z,14.6
2019-05-19T10:52:09.068Z,14.5
2019-05-19T10:52:49.193Z,14.5
2019-05-19T10:54:09.094Z,14.5
2019-05-19T10:54:49.147Z,14.5
2019-05-19T10:55:19.118Z,14.5